Time;durP1;ratioP1;P1;durP2;ratioP2;P2;SDS_P1;SDS_P2;PMS_P1;PMS_P2;Temp;Humidity;BMP_temperature;BMP_pressure;BME280_temperature;BME280_humidity;BME280_pressure;Samples;Min_cycle;Max_cycle;Signal;HPM_P1;HPM_P2
2021/12/26 00:01:08;;;;;;;1.45;0.50;;;18.30;54.50;;;;;;10385114;28;20037;-61
2021/12/26 00:06:15;;;;;;;2.58;0.73;;;18.30;54.50;;;;;;10372538;28;20464;-61
2021/12/26 00:11:17;;;;;;;1.20;0.60;;;18.30;54.40;;;;;;10373175;28;20063;-61
2021/12/26 00:16:18;;;;;;;1.15;0.60;;;18.30;54.40;;;;;;10372259;28;20030;-60
2021/12/26 00:21:21;;;;;;;1.05;0.60;;;18.30;54.50;;;;;;10373049;28;20372;-61
2021/12/26 00:26:22;;;;;;;1.48;0.60;;;18.30;54.40;;;;;;10388078;28;20030;-60
2021/12/26 00:31:23;;;;;;;0.50;0.32;;;18.30;54.40;;;;;;10372678;28;20049;-61
2021/12/26 00:36:24;;;;;;;1.73;0.70;;;18.30;54.50;;;;;;10335502;28;1056380;-60
2021/12/26 00:41:25;;;;;;;1.48;0.43;;;18.40;54.30;;;;;;10374262;28;20071;-60
2021/12/26 00:46:26;;;;;;;1.25;0.70;;;18.30;54.40;;;;;;10374367;28;20038;-61
2021/12/26 00:51:26;;;;;;;1.00;0.50;;;18.30;54.40;;;;;;10374690;28;20112;-60
2021/12/26 00:56:27;;;;;;;1.15;0.47;;;18.30;54.30;;;;;;10373493;28;20407;-61
2021/12/26 01:01:28;;;;;;;0.73;0.30;;;18.30;54.40;;;;;;10384295;28;20026;-61
2021/12/26 01:06:29;;;;;;;1.50;0.88;;;18.30;54.30;;;;;;10373765;28;20026;-60
2021/12/26 01:11:34;;;;;;;1.98;0.57;;;18.30;54.30;;;;;;10373146;28;20553;-60
2021/12/26 01:16:36;;;;;;;0.63;0.43;;;18.30;54.40;;;;;;10373189;28;20030;-61
2021/12/26 01:21:37;;;;;;;1.10;0.57;;;18.30;54.30;;;;;;10371713;28;20034;-60
2021/12/26 01:26:39;;;;;;;1.35;0.68;;;18.30;54.30;;;;;;10372657;28;20046;-60
2021/12/26 01:31:39;;;;;;;0.82;0.30;;;18.30;54.50;;;;;;10372503;28;20065;-60
2021/12/26 01:36:40;;;;;;;0.63;0.30;;;18.30;54.40;;;;;;10372191;28;20042;-61
2021/12/26 01:41:43;;;;;;;0.60;0.50;;;18.40;54.30;;;;;;10372187;28;20077;-61
2021/12/26 01:46:47;;;;;;;0.82;0.60;;;18.40;54.30;;;;;;10372143;28;20026;-61
2021/12/26 01:51:51;;;;;;;0.50;0.43;;;18.30;54.30;;;;;;10371721;28;20049;-61
2021/12/26 01:56:51;;;;;;;0.40;0.38;;;18.30;54.30;;;;;;10370821;28;20117;-62
2021/12/26 02:01:56;;;;;;;0.70;0.40;;;18.40;54.30;;;;;;10382633;28;20498;-61
2021/12/26 02:06:59;;;;;;;0.95;0.60;;;18.30;54.40;;;;;;10370928;28;20545;-60
2021/12/26 02:12:01;;;;;;;1.00;0.40;;;18.30;54.50;;;;;;10371179;28;20100;-60
2021/12/26 02:17:01;;;;;;;0.63;0.22;;;18.30;54.30;;;;;;10371101;28;20443;-60
2021/12/26 02:22:10;;;;;;;0.90;0.55;;;18.30;54.50;;;;;;10370882;28;20042;-61
2021/12/26 02:32:30;;;;;;;0.50;0.40;;;18.30;54.30;;;;;;10370780;28;20050;-60
2021/12/26 02:37:31;;;;;;;1.42;0.85;;;18.30;54.40;;;;;;10370792;28;20382;-60
2021/12/26 02:42:33;;;;;;;0.65;0.57;;;18.30;54.40;;;;;;10370630;28;20479;-60
2021/12/26 02:47:41;;;;;;;0.70;0.40;;;18.30;54.40;;;;;;10370610;28;20058;-60
2021/12/26 02:52:42;;;;;;;0.60;0.40;;;18.30;54.50;;;;;;10369386;28;20061;-59
2021/12/26 02:57:52;;;;;;;1.50;0.77;;;18.30;54.40;;;;;;10370415;28;20034;-61
2021/12/26 03:02:58;;;;;;;0.60;0.45;;;18.30;54.40;;;;;;10376469;28;20476;-60
2021/12/26 03:07:59;;;;;;;0.68;0.30;;;18.30;54.50;;;;;;10370390;28;20038;-60
2021/12/26 03:13:08;;;;;;;0.77;0.45;;;18.30;54.40;;;;;;10370109;28;20103;-61
2021/12/26 03:18:09;;;;;;;0.77;0.45;;;18.30;54.30;;;;;;10369736;28;20042;-60
2021/12/26 03:23:13;;;;;;;0.50;0.38;;;18.30;54.50;;;;;;10370509;28;20423;-60
2021/12/26 03:28:17;;;;;;;0.85;0.50;;;18.30;55.00;;;;;;10376022;28;20386;-61
2021/12/26 03:33:19;;;;;;;0.45;0.30;;;18.40;54.30;;;;;;10376978;28;20045;-61
2021/12/26 03:38:23;;;;;;;0.40;0.40;;;18.40;54.20;;;;;;10377032;28;20293;-60
2021/12/26 03:43:24;;;;;;;0.90;0.40;;;18.30;54.10;;;;;;10376780;28;20113;-61
2021/12/26 03:48:27;;;;;;;1.17;0.55;;;18.30;54.10;;;;;;10375364;28;20176;-59
2021/12/26 03:53:27;;;;;;;0.63;0.50;;;18.30;54.60;;;;;;10376976;28;20357;-60
2021/12/26 03:58:28;;;;;;;0.50;0.40;;;18.30;54.00;;;;;;10376758;28;20038;-61
2021/12/26 04:03:29;;;;;;;1.15;0.40;;;18.30;54.10;;;;;;10387541;28;20054;-60
2021/12/26 04:08:30;;;;;;;1.08;0.30;;;18.30;54.00;;;;;;10376028;28;20363;-60
2021/12/26 04:13:31;;;;;;;0.52;0.38;;;18.30;54.10;;;;;;10375829;28;20037;-60
2021/12/26 04:18:31;;;;;;;0.70;0.40;;;18.30;54.10;;;;;;10375290;28;20041;-60
2021/12/26 04:23:34;;;;;;;0.60;0.40;;;18.30;54.00;;;;;;10375369;28;20029;-61
2021/12/26 04:28:35;;;;;;;0.35;0.30;;;18.30;54.20;;;;;;10375008;28;20468;-61
2021/12/26 04:33:35;;;;;;;0.93;0.40;;;18.30;54.20;;;;;;10374083;28;20247;-61
2021/12/26 04:38:36;;;;;;;0.82;0.47;;;18.30;54.10;;;;;;10372948;28;20050;-60
2021/12/26 04:43:37;;;;;;;0.70;0.25;;;18.30;54.20;;;;;;10374244;28;20104;-61
2021/12/26 04:48:42;;;;;;;0.93;0.50;;;18.30;54.10;;;;;;10374203;28;20454;-60
2021/12/26 04:53:43;;;;;;;0.70;0.47;;;18.30;54.00;;;;;;10374138;28;20034;-62
2021/12/26 04:58:43;;;;;;;0.32;0.30;;;18.30;54.20;;;;;;10374008;28;20045;-58
2021/12/26 05:03:44;;;;;;;1.55;0.30;;;18.30;54.00;;;;;;10377622;28;20045;-59
2021/12/26 05:08:45;;;;;;;0.43;0.40;;;18.30;54.00;;;;;;10372476;28;20038;-59
2021/12/26 05:13:46;;;;;;;0.40;0.30;;;18.30;54.10;;;;;;10372890;28;20042;-60
2021/12/26 05:18:46;;;;;;;0.47;0.20;;;18.30;54.10;;;;;;10372410;28;20042;-61
2021/12/26 05:23:47;;;;;;;0.63;0.30;;;18.30;54.00;;;;;;10372153;28;20030;-60
2021/12/26 05:28:48;;;;;;;0.40;0.30;;;18.40;54.00;;;;;;10371954;28;20045;-61
2021/12/26 05:33:48;;;;;;;0.50;0.30;;;18.30;54.00;;;;;;10370208;28;20105;-60
2021/12/26 05:38:49;;;;;;;0.55;0.30;;;18.30;54.10;;;;;;10370897;28;20096;-60
2021/12/26 05:43:50;;;;;;;1.17;0.47;;;18.30;54.10;;;;;;10371385;28;20046;-60
2021/12/26 05:48:51;;;;;;;0.98;0.40;;;18.30;54.10;;;;;;10371084;28;20030;-60
2021/12/26 05:53:51;;;;;;;0.45;0.30;;;18.30;54.20;;;;;;10370818;28;20034;-60
2021/12/26 05:58:52;;;;;;;0.60;0.60;;;18.30;54.30;;;;;;10370773;28;20554;-60
2021/12/26 06:03:53;;;;;;;0.25;0.25;;;18.30;54.30;;;;;;10372587;28;20022;-61
2021/12/26 06:08:54;;;;;;;0.60;0.30;;;18.20;54.40;;;;;;10371885;28;20048;-61
2021/12/26 06:13:54;;;;;;;0.32;0.20;;;18.30;54.40;;;;;;10371163;28;20038;-61
2021/12/26 06:18:55;;;;;;;0.68;0.38;;;18.30;54.40;;;;;;10371280;28;20456;-61
2021/12/26 06:23:56;;;;;;;1.35;0.40;;;18.40;54.70;;;;;;10369891;28;20403;-60
2021/12/26 06:28:57;;;;;;;3.03;0.63;;;18.40;55.40;;;;;;10371108;28;20438;-60
2021/12/26 06:33:57;;;;;;;2.38;0.65;;;18.50;56.20;;;;;;10370734;28;20465;-60
2021/12/26 06:38:58;;;;;;;0.98;0.50;;;18.50;56.50;;;;;;10370084;28;20042;-61
2021/12/26 06:43:59;;;;;;;0.95;0.40;;;18.50;58.20;;;;;;10352405;28;20038;-60
2021/12/26 06:49:00;;;;;;;3.38;0.75;;;18.50;58.50;;;;;;10370992;28;20033;-61
2021/12/26 06:54:01;;;;;;;3.78;0.60;;;18.50;58.00;;;;;;10368912;28;20060;-59
2021/12/26 06:59:02;;;;;;;4.80;0.80;;;18.50;59.30;;;;;;10372481;28;20042;-60
2021/12/26 07:04:03;;;;;;;1.75;0.50;;;18.40;59.10;;;;;;10384660;28;20381;-61
2021/12/26 07:09:04;;;;;;;3.95;0.63;;;18.40;58.80;;;;;;10368623;28;20030;-61
2021/12/26 07:14:05;;;;;;;3.90;0.75;;;18.40;58.70;;;;;;10376310;28;20037;-61
2021/12/26 07:19:05;;;;;;;4.57;0.68;;;18.40;57.90;;;;;;10377797;28;20022;-60
2021/12/26 07:24:07;;;;;;;7.85;1.33;;;18.30;58.00;;;;;;10377438;28;20042;-59
2021/12/26 07:29:08;;;;;;;2.95;0.73;;;18.30;57.60;;;;;;10377475;28;20026;-60
2021/12/26 07:34:08;;;;;;;11.15;1.20;;;18.30;57.30;;;;;;10376469;28;20069;-60
2021/12/26 07:39:09;;;;;;;5.90;0.85;;;18.30;57.10;;;;;;10375818;28;20053;-61
2021/12/26 07:44:10;;;;;;;3.95;1.65;;;18.20;56.90;;;;;;10372016;28;20080;-60
2021/12/26 07:49:11;;;;;;;3.38;0.93;;;18.20;56.90;;;;;;10375407;28;20037;-61
2021/12/26 07:54:14;;;;;;;3.38;0.73;;;18.10;56.70;;;;;;10376339;28;20042;-61
2021/12/26 07:59:15;;;;;;;2.28;0.68;;;18.20;56.60;;;;;;10376016;28;20080;-61
2021/12/26 08:04:15;;;;;;;2.20;0.52;;;18.10;56.40;;;;;;10396165;28;20068;-60
2021/12/26 08:09:16;;;;;;;2.13;0.60;;;18.10;56.40;;;;;;10376347;28;20026;-61
2021/12/26 08:14:17;;;;;;;1.77;0.50;;;18.10;56.30;;;;;;10371058;28;20413;-62
2021/12/26 08:19:18;;;;;;;2.80;0.70;;;18.10;56.20;;;;;;10356044;28;20038;-61
2021/12/26 08:24:19;;;;;;;1.85;0.88;;;18.10;56.20;;;;;;10376096;28;20049;-61
2021/12/26 08:29:22;;;;;;;1.33;0.35;;;18.00;56.80;;;;;;10375635;28;20114;-60
2021/12/26 08:34:23;;;;;;;1.67;0.30;;;18.10;56.00;;;;;;10373290;28;20042;-61
2021/12/26 08:39:29;;;;;;;1.40;0.52;;;18.10;56.00;;;;;;10374482;28;20128;-59
2021/12/26 08:44:30;;;;;;;1.33;0.45;;;18.10;56.00;;;;;;10374036;28;20042;-62
2021/12/26 08:49:32;;;;;;;1.30;0.57;;;18.10;56.00;;;;;;10374456;28;20030;-61
2021/12/26 08:54:35;;;;;;;2.50;0.80;;;18.10;55.90;;;;;;10374152;28;20402;-64
2021/12/26 08:59:38;;;;;;;3.47;0.82;;;18.10;55.70;;;;;;10368604;28;20036;-61
2021/12/26 09:04:40;;;;;;;3.25;0.70;;;18.00;55.30;;;;;;10365085;28;20037;-62
2021/12/26 09:09:42;;;;;;;8.23;1.25;;;18.00;55.80;;;;;;10372812;28;20026;-64
2021/12/26 09:14:43;;;;;;;6.82;1.00;;;18.00;55.90;;;;;;10371642;28;20087;-61
2021/12/26 09:19:44;;;;;;;5.30;1.13;;;18.10;56.40;;;;;;10372456;28;20038;-60
2021/12/26 09:24:46;;;;;;;4.57;0.90;;;18.10;56.30;;;;;;10372158;28;20045;-61
2021/12/26 09:29:47;;;;;;;6.22;0.90;;;18.20;56.00;;;;;;10373064;28;20124;-62
2021/12/26 09:34:48;;;;;;;7.43;0.90;;;18.20;56.20;;;;;;10372345;28;20037;-61
2021/12/26 09:39:48;;;;;;;10.07;1.48;;;18.10;56.00;;;;;;10372277;28;20056;-60
2021/12/26 09:44:50;;;;;;;10.30;1.60;;;18.10;55.90;;;;;;10371476;28;20525;-61
2021/12/26 09:49:50;;;;;;;16.63;2.22;;;18.20;56.10;;;;;;10371722;28;20038;-60
2021/12/26 09:54:51;;;;;;;12.38;1.50;;;18.10;57.00;;;;;;10370795;28;20109;-62
2021/12/26 09:59:52;;;;;;;23.15;2.63;;;18.00;57.20;;;;;;10362165;28;20551;-62
2021/12/26 10:04:53;;;;;;;9.43;2.85;;;18.00;57.80;;;;;;10370044;28;20030;-61
2021/12/26 10:09:55;;;;;;;9.02;2.03;;;17.90;58.10;;;;;;10372330;28;20033;-60
2021/12/26 10:14:55;;;;;;;19.85;2.75;;;17.90;57.50;;;;;;10372161;28;20034;-60
2021/12/26 10:20:10;;;;;;;10.93;2.25;;;17.80;58.30;;;;;;10360760;28;20042;-60
2021/12/26 10:25:14;;;;;;;19.77;3.22;;;17.80;58.00;;;;;;10370375;28;20036;-59
2021/12/26 10:30:17;;;;;;;11.60;2.20;;;17.80;58.50;;;;;;10358620;28;20045;-60
2021/12/26 10:35:19;;;;;;;11.02;1.52;;;17.80;58.70;;;;;;10378851;28;20030;-61
2021/12/26 10:40:23;;;;;;;7.13;1.67;;;17.90;59.00;;;;;;10377094;28;20085;-60
2021/12/26 10:45:29;;;;;;;11.50;1.98;;;17.90;59.00;;;;;;10380273;28;20038;-60
2021/12/26 10:50:33;;;;;;;15.25;1.80;;;18.00;58.70;;;;;;10380026;28;20033;-60
2021/12/26 10:55:40;;;;;;;8.23;1.30;;;18.00;59.30;;;;;;10377884;28;20614;-61
2021/12/26 11:00:44;;;;;;;5.63;1.88;;;18.10;60.90;;;;;;10378353;28;20056;-62
2021/12/26 11:05:47;;;;;;;11.20;2.47;;;18.10;61.20;;;;;;10361378;28;21437;-63
2021/12/26 11:10:54;;;;;;;7.60;1.77;;;18.10;61.10;;;;;;10376774;28;20476;-61
2021/12/26 11:16:04;;;;;;;8.65;2.35;;;18.10;60.90;;;;;;10373908;28;20484;-62
2021/12/26 11:21:14;;;;;;;4.97;1.92;;;18.10;60.50;;;;;;10362683;28;20073;-62
2021/12/26 11:26:18;;;;;;;10.85;2.33;;;18.20;61.80;;;;;;10376707;28;20026;-61
2021/12/26 11:31:28;;;;;;;5.25;2.45;;;18.20;62.00;;;;;;10371765;28;20050;-60
2021/12/26 11:36:32;;;;;;;5.80;2.15;;;18.20;61.00;;;;;;10374820;28;20042;-60
2021/12/26 11:41:53;;;;;;;7.00;2.85;;;18.10;61.10;;;;;;10377182;28;20510;-59
2021/12/26 11:47:12;;;;;;;4.38;1.85;;;18.00;61.40;;;;;;10376401;28;20099;-62
2021/12/26 11:52:40;;;;;;;8.20;2.70;;;17.90;61.70;;;;;;10375511;28;20030;-60
2021/12/26 11:58:11;;;;;;;13.27;3.33;;;17.80;61.30;;;;;;10376438;28;20038;-61
2021/12/26 12:03:19;;;;;;;;;;;17.70;61.30;;;;;;10382170;28;20408;-60
2021/12/26 12:08:30;;;;;;;7.00;2.20;;;17.70;61.00;;;;;;10376201;28;19932;-62
2021/12/26 12:13:53;;;;;;;9.38;2.08;;;17.60;60.50;;;;;;10374573;28;20045;-61
2021/12/26 12:18:58;;;;;;;11.25;2.95;;;17.50;60.40;;;;;;10375725;28;20045;-61
2021/12/26 12:24:17;;;;;;;9.20;1.90;;;17.50;59.60;;;;;;10361598;28;20033;-62
2021/12/26 12:29:24;;;;;;;9.75;2.28;;;17.60;59.30;;;;;;10373048;28;20450;-63
2021/12/26 12:34:24;;;;;;;8.50;1.58;;;17.60;59.20;;;;;;10371284;28;20045;-63
2021/12/26 12:39:25;;;;;;;6.78;1.88;;;17.60;59.20;;;;;;10369663;28;20072;-62
2021/12/26 12:44:44;;;;;;;4.95;1.67;;;17.60;59.10;;;;;;10370106;28;20034;-62
2021/12/26 12:49:55;;;;;;;7.57;2.28;;;17.60;59.00;;;;;;10372825;28;20044;-60
2021/12/26 12:54:56;;;;;;;6.45;1.50;;;17.60;58.90;;;;;;10372081;28;20057;-61
2021/12/26 12:59:56;;;;;;;5.15;1.75;;;17.70;58.80;;;;;;10377313;28;20060;-62
2021/12/26 13:04:57;;;;;;;4.50;1.40;;;17.70;58.60;;;;;;10373852;28;20101;-62
2021/12/26 13:10:05;;;;;;;4.80;1.38;;;17.70;58.40;;;;;;10374519;28;20083;-62
2021/12/26 13:15:06;;;;;;;4.15;1.40;;;17.70;58.40;;;;;;10371335;28;20132;-62
2021/12/26 13:20:23;;;;;;;4.70;1.63;;;17.70;58.20;;;;;;10373393;28;20045;-61
2021/12/26 13:25:31;;;;;;;3.50;1.38;;;17.70;58.10;;;;;;10373197;28;20030;-61
2021/12/26 13:30:33;;;;;;;4.30;1.40;;;17.70;57.90;;;;;;10372728;28;20042;-61
2021/12/26 13:35:36;;;;;;;5.07;1.60;;;17.70;57.80;;;;;;10372534;28;20061;-61
2021/12/26 13:40:45;;;;;;;3.95;2.10;;;17.70;57.60;;;;;;10371548;28;20407;-61
2021/12/26 13:45:46;;;;;;;2.58;1.20;;;17.80;57.50;;;;;;10372272;28;20029;-61
2021/12/26 13:50:46;;;;;;;3.67;1.10;;;17.90;57.20;;;;;;10372202;28;20124;-61
2021/12/26 13:55:52;;;;;;;4.60;1.40;;;17.90;56.90;;;;;;10372013;28;20126;-61
2021/12/26 14:00:57;;;;;;;3.70;1.10;;;17.90;56.80;;;;;;10365103;28;20061;-62
2021/12/26 14:05:58;;;;;;;3.13;1.20;;;17.90;56.80;;;;;;10370985;28;20040;-63
2021/12/26 14:11:09;;;;;;;2.60;1.30;;;17.90;56.90;;;;;;10371039;28;20037;-59
2021/12/26 14:16:10;;;;;;;3.90;1.50;;;17.90;57.00;;;;;;10370067;28;20480;-61
2021/12/26 14:21:15;;;;;;;3.05;0.85;;;17.90;56.70;;;;;;10369735;28;20033;-62
2021/12/26 14:26:22;;;;;;;3.63;0.95;;;17.90;56.60;;;;;;10371507;28;20026;-61
2021/12/26 14:31:31;;;;;;;2.33;1.23;;;17.90;56.60;;;;;;10370639;28;20092;-61
2021/12/26 14:36:58;;;;;;;4.53;1.15;;;17.90;56.40;;;;;;10370812;28;20455;-61
2021/12/26 14:42:05;;;;;;;1.92;0.80;;;18.00;56.10;;;;;;10362067;28;20057;-60
2021/12/26 14:47:24;;;;;;;1.67;0.80;;;18.00;55.90;;;;;;10370866;28;20026;-60
2021/12/26 14:52:28;;;;;;;4.05;1.15;;;18.00;56.00;;;;;;10370591;28;20204;-60
2021/12/26 14:57:29;;;;;;;1.80;1.00;;;18.00;55.90;;;;;;10370297;28;20030;-61
2021/12/26 15:02:41;;;;;;;1.45;1.02;;;18.00;55.90;;;;;;10380697;28;20092;-60
2021/12/26 15:07:48;;;;;;;1.95;1.02;;;18.10;56.00;;;;;;10370389;28;20070;-62
2021/12/26 15:12:55;;;;;;;2.47;1.38;;;18.00;55.90;;;;;;10370318;28;20065;-60
2021/12/26 15:18:00;;;;;;;3.47;1.30;;;18.00;55.90;;;;;;10370080;28;20065;-59
2021/12/26 15:23:33;;;;;;;2.80;1.02;;;18.00;55.90;;;;;;10377806;28;20037;-60
2021/12/26 15:28:44;;;;;;;2.00;0.88;;;18.00;55.90;;;;;;10377542;28;20034;-61
2021/12/26 15:33:49;;;;;;;3.08;1.05;;;18.00;55.70;;;;;;10376396;28;20038;-60
2021/12/26 15:38:57;;;;;;;3.58;1.10;;;18.10;55.60;;;;;;10376663;28;20046;-60
2021/12/26 15:44:00;;;;;;;1.73;0.90;;;18.10;55.60;;;;;;10376892;28;20034;-61
2021/12/26 15:49:01;;;;;;;2.03;0.88;;;18.10;55.50;;;;;;10369949;28;20030;-61
2021/12/26 15:54:04;;;;;;;3.88;1.10;;;18.10;55.30;;;;;;10364221;28;20091;-61
2021/12/26 15:59:08;;;;;;;2.17;0.98;;;18.10;55.30;;;;;;10364146;28;20049;-62
2021/12/26 16:04:11;;;;;;;2.00;1.00;;;18.20;55.10;;;;;;10386743;28;20240;-61
2021/12/26 16:09:14;;;;;;;3.05;1.23;;;18.10;55.20;;;;;;10375862;28;20095;-61
2021/12/26 16:14:15;;;;;;;1.80;1.05;;;18.20;55.10;;;;;;10376112;28;20029;-61
2021/12/26 16:19:16;;;;;;;1.83;0.93;;;18.30;54.90;;;;;;10375400;28;20096;-61
2021/12/26 16:24:17;;;;;;;1.80;1.10;;;18.20;54.80;;;;;;10374467;28;20451;-61
2021/12/26 16:29:17;;;;;;;3.35;1.77;;;18.20;54.90;;;;;;10361730;28;20145;-61
2021/12/26 16:34:18;;;;;;;2.08;1.13;;;18.20;55.00;;;;;;10375768;28;20191;-62
2021/12/26 16:39:21;;;;;;;2.70;1.48;;;18.10;55.00;;;;;;10374897;28;20153;-60
2021/12/26 16:44:21;;;;;;;1.70;1.42;;;18.10;55.10;;;;;;10374231;28;20488;-60
2021/12/26 16:49:22;;;;;;;2.33;1.42;;;18.10;55.00;;;;;;10374056;28;20125;-60
2021/12/26 16:54:25;;;;;;;1.83;1.00;;;18.20;55.00;;;;;;10374197;28;20029;-61
2021/12/26 16:59:26;;;;;;;1.73;1.02;;;18.10;55.00;;;;;;10374341;28;20034;-61
2021/12/26 17:04:27;;;;;;;1.42;1.05;;;18.10;55.00;;;;;;10384657;28;20034;-60
2021/12/26 17:09:28;;;;;;;1.77;1.13;;;18.20;54.90;;;;;;10373595;28;20030;-60
2021/12/26 17:14:29;;;;;;;1.67;0.90;;;18.10;54.90;;;;;;10373420;28;20045;-60
2021/12/26 17:19:30;;;;;;;2.22;1.08;;;18.10;55.50;;;;;;10373186;28;20030;-61
2021/12/26 17:24:33;;;;;;;1.23;0.60;;;18.10;55.00;;;;;;10373685;28;20030;-60
2021/12/26 17:29:34;;;;;;;1.85;1.15;;;18.10;54.90;;;;;;10372771;28;20041;-60
2021/12/26 17:34:34;;;;;;;2.05;1.17;;;18.10;54.80;;;;;;10372800;28;20038;-61
2021/12/26 17:39:39;;;;;;;3.30;1.10;;;18.20;54.90;;;;;;10372145;28;20046;-61
2021/12/26 17:44:40;;;;;;;1.27;0.90;;;18.10;54.80;;;;;;10371682;28;20046;-61
2021/12/26 17:49:41;;;;;;;2.65;1.00;;;18.10;54.90;;;;;;10372106;28;20033;-61
2021/12/26 17:54:41;;;;;;;1.45;1.00;;;18.10;54.90;;;;;;10370677;28;20041;-62
2021/12/26 17:59:42;;;;;;;1.55;1.10;;;18.10;55.00;;;;;;10371614;28;20428;-61
2021/12/26 18:04:43;;;;;;;1.58;1.27;;;18.20;54.80;;;;;;10370765;28;20034;-61
2021/12/26 18:09:43;;;;;;;1.50;1.10;;;18.20;54.60;;;;;;10371342;28;20100;-61
2021/12/26 18:14:44;;;;;;;2.17;1.15;;;18.30;54.50;;;;;;10371324;28;20033;-60
2021/12/26 18:19:45;;;;;;;1.95;1.17;;;18.30;54.30;;;;;;10370026;28;20037;-61
2021/12/26 18:24:46;;;;;;;1.70;1.05;;;18.30;54.20;;;;;;10371120;28;20077;-61
2021/12/26 18:29:46;;;;;;;2.42;1.50;;;18.30;54.30;;;;;;10371077;28;20183;-61
2021/12/26 18:34:47;;;;;;;2.97;1.48;;;18.30;54.20;;;;;;10330438;28;20034;-61
2021/12/26 18:39:48;;;;;;;2.55;1.70;;;18.30;54.20;;;;;;10360753;28;20094;-61
2021/12/26 18:44:49;;;;;;;1.17;0.90;;;18.30;54.30;;;;;;10370848;28;20042;-60
2021/12/26 18:49:50;;;;;;;1.95;1.38;;;18.30;54.30;;;;;;10369284;28;20502;-62
2021/12/26 18:54:51;;;;;;;1.55;1.15;;;18.30;54.20;;;;;;10373779;28;20045;-61
2021/12/26 18:59:52;;;;;;;2.17;1.40;;;18.30;54.10;;;;;;10378825;28;20033;-60
2021/12/26 19:04:52;;;;;;;2.25;1.27;;;18.20;54.10;;;;;;10378550;28;20045;-59
2021/12/26 19:09:53;;;;;;;2.20;1.25;;;18.20;54.50;;;;;;10378167;28;20041;-60
2021/12/26 19:14:54;;;;;;;2.20;1.42;;;18.20;54.40;;;;;;10378278;28;20038;-59
2021/12/26 19:19:55;;;;;;;2.95;1.70;;;18.20;54.30;;;;;;10377126;28;20034;-61
2021/12/26 19:24:55;;;;;;;2.72;1.77;;;18.30;54.30;;;;;;10377927;28;20092;-60
2021/12/26 19:29:56;;;;;;;3.08;1.85;;;18.10;54.40;;;;;;10377596;28;20037;-61
2021/12/26 19:34:57;;;;;;;4.28;1.70;;;18.10;54.30;;;;;;10377517;28;20045;-62
2021/12/26 19:39:57;;;;;;;4.18;1.70;;;18.10;54.70;;;;;;10375820;28;20034;-60
2021/12/26 19:44:58;;;;;;;7.78;2.65;;;18.10;54.50;;;;;;10371011;28;20026;-61
2021/12/26 19:49:59;;;;;;;4.45;2.17;;;18.10;54.70;;;;;;10374518;28;20488;-58
2021/12/26 19:55:00;;;;;;;4.15;1.92;;;18.20;54.60;;;;;;10372263;28;20533;-61
2021/12/26 20:00:03;;;;;;;5.32;1.92;;;18.30;54.60;;;;;;10372513;28;20349;-60
2021/12/26 20:05:05;;;;;;;6.70;1.67;;;18.30;54.70;;;;;;10354846;28;20066;-60
2021/12/26 20:10:06;;;;;;;5.03;2.00;;;18.30;54.60;;;;;;10370466;28;20403;-61
2021/12/26 20:15:07;;;;;;;4.88;1.92;;;18.40;54.60;;;;;;10374108;28;20034;-60
2021/12/26 20:20:10;;;;;;;3.35;1.50;;;18.50;54.60;;;;;;10371623;28;20105;-61
2021/12/26 20:25:12;;;;;;;5.85;2.35;;;18.40;54.80;;;;;;10374161;28;20018;-60
2021/12/26 20:30:13;;;;;;;4.35;2.33;;;18.30;55.30;;;;;;10375728;28;20033;-60
2021/12/26 20:35:13;;;;;;;3.28;1.70;;;18.20;55.50;;;;;;10375325;28;20388;-60
2021/12/26 20:40:15;;;;;;;3.72;1.45;;;18.20;55.70;;;;;;10375053;28;20050;-60
2021/12/26 20:45:15;;;;;;;4.32;2.20;;;18.10;55.70;;;;;;10374637;28;20073;-60
2021/12/26 20:50:17;;;;;;;4.38;1.60;;;18.10;55.60;;;;;;10374398;28;20038;-60
2021/12/26 20:55:18;;;;;;;3.05;1.50;;;18.20;55.60;;;;;;10374661;28;20038;-61
2021/12/26 21:00:23;;;;;;;3.38;1.40;;;18.30;55.40;;;;;;10382027;28;20399;-60
2021/12/26 21:05:24;;;;;;;4.38;1.75;;;18.20;55.40;;;;;;10375623;28;20038;-61
2021/12/26 21:10:25;;;;;;;3.08;1.63;;;18.20;55.30;;;;;;10374294;28;20520;-61
2021/12/26 21:15:26;;;;;;;3.03;1.35;;;18.20;55.30;;;;;;10372978;28;20384;-61
2021/12/26 21:20:26;;;;;;;2.70;1.60;;;18.20;55.30;;;;;;10373726;28;20030;-61
2021/12/26 21:25:27;;;;;;;4.20;1.75;;;18.20;55.10;;;;;;10373247;28;20037;-62
2021/12/26 21:30:28;;;;;;;2.35;1.65;;;18.20;55.10;;;;;;10373328;28;20041;-60
2021/12/26 21:35:30;;;;;;;4.45;1.88;;;18.30;55.10;;;;;;10373035;28;20487;-61
2021/12/26 21:40:33;;;;;;;4.53;1.80;;;18.30;55.00;;;;;;10372425;28;20042;-61
2021/12/26 21:45:35;;;;;;;2.42;1.60;;;18.30;55.10;;;;;;10372386;28;20042;-61
2021/12/26 21:50:37;;;;;;;2.88;1.50;;;18.30;55.00;;;;;;10372712;28;20038;-61
2021/12/26 21:55:38;;;;;;;3.25;1.40;;;18.20;55.10;;;;;;10372195;28;20084;-61
2021/12/26 22:00:39;;;;;;;3.28;1.67;;;18.20;55.10;;;;;;10377952;28;20092;-60
2021/12/26 22:05:40;;;;;;;2.72;1.50;;;18.30;55.10;;;;;;10371575;28;20046;-61
2021/12/26 22:10:40;;;;;;;2.85;1.80;;;18.20;55.10;;;;;;10372002;28;20033;-61
2021/12/26 22:15:41;;;;;;;3.80;1.90;;;18.30;55.00;;;;;;10371710;28;20121;-61
2021/12/26 22:20:42;;;;;;;2.53;1.90;;;18.20;55.10;;;;;;10371612;28;20064;-60
2021/12/26 22:25:43;;;;;;;2.92;1.73;;;18.30;54.90;;;;;;10371103;28;20034;-61
2021/12/26 22:30:45;;;;;;;2.55;1.58;;;18.30;54.90;;;;;;10371420;28;20026;-61
2021/12/26 22:35:45;;;;;;;2.22;1.52;;;18.30;55.00;;;;;;10371192;28;20054;-61
2021/12/26 22:40:46;;;;;;;2.72;1.52;;;18.30;54.90;;;;;;10371273;28;20543;-60
2021/12/26 22:45:47;;;;;;;2.85;1.60;;;18.30;54.80;;;;;;10371103;28;20044;-61
2021/12/26 22:50:48;;;;;;;2.10;1.60;;;18.30;54.90;;;;;;10371298;28;20030;-60
2021/12/26 22:55:49;;;;;;;3.63;1.90;;;18.30;54.90;;;;;;10370625;28;20046;-61
2021/12/26 23:00:54;;;;;;;3.55;1.67;;;18.30;54.90;;;;;;10381314;28;20044;-61
2021/12/26 23:05:59;;;;;;;2.58;1.73;;;18.30;54.90;;;;;;10370458;28;20060;-61
2021/12/26 23:11:00;;;;;;;2.13;1.30;;;18.30;54.90;;;;;;10370897;28;20073;-61
2021/12/26 23:16:02;;;;;;;3.40;1.83;;;18.30;55.00;;;;;;10370415;28;20412;-61
2021/12/26 23:21:06;;;;;;;2.83;1.95;;;18.30;54.90;;;;;;10370492;28;20526;-61
2021/12/26 23:26:07;;;;;;;2.47;1.30;;;18.30;55.00;;;;;;10370268;28;20034;-60
2021/12/26 23:31:08;;;;;;;2.10;1.40;;;18.30;54.90;;;;;;10368962;28;20030;-61
2021/12/26 23:36:09;;;;;;;2.28;1.42;;;18.30;54.90;;;;;;10370055;28;20030;-61
2021/12/26 23:41:14;;;;;;;2.60;1.60;;;18.30;55.00;;;;;;10373294;28;20041;-61
2021/12/26 23:46:17;;;;;;;1.60;1.17;;;18.30;55.00;;;;;;10375859;28;20045;-60
2021/12/26 23:51:18;;;;;;;1.95;1.40;;;18.30;55.00;;;;;;10377262;28;20076;-61
2021/12/26 23:56:18;;;;;;;2.70;1.85;;;18.30;54.90;;;;;;10376093;28;20048;-61
